WetterOnline ( https://www.wetteronline.de )

Wetter aktuell Augsburg

Aktuelles Wetter: Lechfeld (554m)

6-stündlich | Neueste Meldungen
Ortszeit Temperatur Wetter
Mi, 29.05. 20:00 13.7° C leichter Regen
Mi, 29.05. 14:00 19.4° C bewölkt
Mi, 29.05. 8:00 10.9° C wolkig
Mi, 29.05. 2:00 8.6° C leicht bewölkt
Di, 28.05. 20:00 15.2° C leicht bewölkt
Di, 28.05. 14:00 13.2° C bewölkt
Di, 28.05. 8:00 11.6° C bewölkt
Di, 28.05. 2:00 13.3° C bewölkt
Ortszeit Temperatur Wetter
Mi, 29.05. 20:00 13.7° C leichter Regen
Mi, 29.05. 19:00 13.9° C leichter Regen
Mi, 29.05. 18:00 14.7° C leichter Regen
Mi, 29.05. 17:00 19.3° C bewölkt
Mi, 29.05. 16:00 19.8° C bewölkt
Mi, 29.05. 15:00 19.3° C bewölkt
Mi, 29.05. 14:00 19.4° C bewölkt
Ortszeit Relative Feuchte Sichtweite
Mi, 29.05. 20:00 86% 30 km
Mi, 29.05. 14:00 39% 60 km
Mi, 29.05. 8:00 84% 50 km
Mi, 29.05. 2:00 92% 30 km
Di, 28.05. 20:00 69% 60 km
Di, 28.05. 14:00 67% 50 km
Di, 28.05. 8:00 91% 20 km
Di, 28.05. 2:00 91% 12 km
Ortszeit Relative Feuchte Sichtweite
Mi, 29.05. 20:00 86% 30 km
Mi, 29.05. 19:00 84% 30 km
Mi, 29.05. 18:00 80% 30 km
Mi, 29.05. 17:00 47% 60 km
Mi, 29.05. 16:00 41% 60 km
Mi, 29.05. 15:00 44% 60 km
Mi, 29.05. 14:00 39% 60 km
Ortszeit Niederschlagsmenge Niederschlagsart
Mi, 29.05. 20:00 0.7 l/m2 in 12 Std. Regen
Mi, 29.05. 14:00 keine Meldung -
Mi, 29.05. 8:00 0.0 l/m2 in 12 Std. -
Mi, 29.05. 2:00 keine Meldung -
Di, 28.05. 20:00 0.1 l/m2 in 12 Std. -
Di, 28.05. 14:00 keine Meldung -
Di, 28.05. 8:00 12 l/m2 in 12 Std. Regenschauer
Di, 28.05. 2:00 keine Meldung -
Ortszeit Niederschlagsmenge Niederschlagsart
Mi, 29.05. 20:00 keine Meldung -
Mi, 29.05. 19:00 keine Meldung -
Mi, 29.05. 18:00 keine Meldung -
Mi, 29.05. 17:00 keine Meldung -
Mi, 29.05. 16:00 keine Meldung -
Mi, 29.05. 15:00 keine Meldung -
Mi, 29.05. 14:00 keine Meldung -
Ortszeit Stärke Spitze Richtung
km/h Bft. km/h Grad Sektor
Mi, 29.05. 20:00 11 2 47 210° SW
Mi, 29.05. 14:00 7 2 - 250° W
Mi, 29.05. 8:00 11 2 - 160° S
Mi, 29.05. 2:00 14 3 - 170° S
Di, 28.05. 20:00 14 3 - 130° SO
Di, 28.05. 14:00 11 2 - 230° SW
Di, 28.05. 8:00 11 2 - 230° SW
Di, 28.05. 2:00 14 3 - 220° SW
Ortszeit Stärke Spitze Richtung
km/h Bft. km/h Grad Sektor
Mi, 29.05. 20:00 11 2 47 210° SW
Mi, 29.05. 19:00 14 3 - 220° SW
Mi, 29.05. 18:00 22 4 47 250° W
Mi, 29.05. 17:00 11 2 - 220° SW
Mi, 29.05. 16:00 11 2 - 230° SW
Mi, 29.05. 15:00 7 2 - 220° SW
Mi, 29.05. 14:00 7 2 - 250° W
Ortszeit Untergrenze Bedeckung Gattung
total tief tief mittel hoch
Mi, 29.05. 20:00 300 m 7/8 7/8 Cu - -
Mi, 29.05. 14:00 1500 m 7/8 1/8 Cu As -
Mi, 29.05. 8:00 3000 m 7/8 5/8 - As Ci
Mi, 29.05. 2:00 7200 m 2/8 0/8 - - Ci
Di, 28.05. 20:00 1050 m 3/8 2/8 Cu - Ci
Di, 28.05. 14:00 750 m 7/8 7/8 Cu - -
Di, 28.05. 8:00 300 m 7/8 7/8 Cu As -
Di, 28.05. 2:00 600 m 7/8 5/8 Cu As -
Ortszeit Bedeckungsgrad in Achtel und Wolkenuntergrenze
Mi, 29.05. 20:00 1(300m) 7(2100m)
Mi, 29.05. 19:00 1(300m) 7(1800m)
Mi, 29.05. 18:00 1(360m) 7(2100m)
Mi, 29.05. 17:00 5(1500m) 7(2100m)
Mi, 29.05. 16:00 1(1500m) 5(2100m) 7(2700m)
Mi, 29.05. 15:00 1(1500m) 7(2700m)
Mi, 29.05. 14:00 1(1500m) 6(2700m) 7(3300m)
Ortszeit Luftdruck NN (hPa) Tendenz (hPa in 3 Std.)
Mi, 29.05. 20:00 1013 + 0,2
Mi, 29.05. 14:00 1013 - 1,5
Mi, 29.05. 8:00 1018 - 0,7
Mi, 29.05. 2:00 1020 - 0,9
Di, 28.05. 20:00 1019 - 0,5
Di, 28.05. 14:00 1021 - 0,2
Di, 28.05. 8:00 1021 + 1,3
Di, 28.05. 2:00 1018 + 0,2
Ortszeit Luftdruck NN (hPa) Tendenz (hPa in 3 Std.)
Mi, 29.05. 20:00 1013 + 0,2
Mi, 29.05. 19:00 1013 + 0,1
Mi, 29.05. 18:00 1013 - 0,2
Mi, 29.05. 17:00 1012 - 1,2
Mi, 29.05. 16:00 1012 - 1,5
Mi, 29.05. 15:00 1013 - 1,5
Mi, 29.05. 14:00 1013 - 1,5
Ortszeit Schneehöhe (cm)
Mi, 29.05. 20:00 0
Mi, 29.05. 14:00 -
Mi, 29.05. 8:00 0
Mi, 29.05. 2:00 -
Di, 28.05. 20:00 0
Di, 28.05. 14:00 -
Di, 28.05. 8:00 0
Di, 28.05. 2:00 -
Ortszeit Schneehöhe (cm)
Mi, 29.05. 20:00 0
Mi, 29.05. 19:00 -
Mi, 29.05. 18:00 -
Mi, 29.05. 17:00 -
Mi, 29.05. 16:00 -
Mi, 29.05. 15:00 -
Mi, 29.05. 14:00 -
Link zu dieser Seite / Seite empfehlen

Das Wetter in ...